Time;durP1;ratioP1;P1;durP2;ratioP2;P2;SDS_P1;SDS_P2;PMS_P1;PMS_P2;Temp;Humidity;BMP_temperature;BMP_pressure;BME280_temperature;BME280_humidity;BME280_pressure;Samples;Min_cycle;Max_cycle;Signal;HPM_P1;HPM_P2
2021/01/23 00:02:12;;;;;;;27.10;19.20;;;;;;;4.25;69.00;99333.19;5119663;28;20580;-71
2021/01/23 00:04:37;;;;;;;29.27;18.23;;;;;;;4.56;68.85;99333.56;5120229;28;20207;-72
2021/01/23 00:07:02;;;;;;;27.63;17.27;;;;;;;4.52;68.51;99331.81;5120894;28;20267;-72
2021/01/23 00:09:28;;;;;;;26.17;19.93;;;;;;;4.51;68.33;99330.06;5120383;28;20168;-69
2021/01/23 00:11:53;;;;;;;28.43;20.73;;;;;;;4.42;68.86;99330.81;5120400;27;20213;-69
2021/01/23 00:14:18;;;;;;;30.10;20.83;;;;;;;4.14;69.33;99332.19;5120180;28;20616;-70
2021/01/23 00:16:44;;;;;;;25.20;18.33;;;;;;;4.21;69.01;99329.72;5120177;28;20195;-70
2021/01/23 00:19:09;;;;;;;28.43;20.97;;;;;;;4.55;69.33;99326.66;5120224;28;20194;-70
2021/01/23 00:21:35;;;;;;;29.30;20.80;;;;;;;4.52;67.98;99318.91;5119793;28;20214;-70
2021/01/23 00:24:00;;;;;;;27.97;18.83;;;;;;;4.31;68.59;99317.78;5119827;27;20179;-70
2021/01/23 00:26:26;;;;;;;29.83;20.70;;;;;;;4.66;68.44;99317.31;5120444;28;20446;-71
2021/01/23 00:28:51;;;;;;;26.17;19.07;;;;;;;4.68;67.98;99315.63;5119849;28;20167;-71
2021/01/23 00:31:17;;;;;;;24.67;19.87;;;;;;;4.71;67.79;99325.97;5119744;28;20172;-74
2021/01/23 00:33:43;;;;;;;29.13;20.53;;;;;;;4.66;68.23;99321.63;5120246;28;20170;-72
2021/01/23 00:36:08;;;;;;;40.07;27.47;;;;;;;4.68;68.15;99318.22;5119846;28;20409;-73
2021/01/23 00:38:33;;;;;;;27.70;20.30;;;;;;;4.54;68.10;99324.94;5119684;28;20180;-74
2021/01/23 00:40:59;;;;;;;28.43;19.40;;;;;;;4.37;69.14;99312.72;5119979;28;20195;-72
2021/01/23 00:43:24;;;;;;;25.53;18.70;;;;;;;4.53;68.71;99318.03;5119624;27;20221;-71
2021/01/23 00:45:49;;;;;;;25.63;18.37;;;;;;;4.87;67.79;99320.97;5119452;28;20205;-71
2021/01/23 00:48:15;;;;;;;29.03;20.27;;;;;;;4.40;68.34;99322.19;5120016;28;20518;-70
2021/01/23 00:50:40;;;;;;;29.60;22.40;;;;;;;4.62;67.88;99319.84;5118566;28;20216;-72
2021/01/23 00:53:06;;;;;;;25.83;20.03;;;;;;;4.93;67.17;99326.19;5119580;28;20292;-72
2021/01/23 00:55:31;;;;;;;30.80;20.80;;;;;;;4.72;67.39;99329.41;5118997;28;20544;-73
2021/01/23 00:57:57;;;;;;;33.63;21.73;;;;;;;4.66;67.77;99330.22;5118646;28;20513;-71
2021/01/23 01:00:22;;;;;;;32.27;21.23;;;;;;;5.04;66.62;99336.63;5119087;28;20584;-70
2021/01/23 01:02:48;;;;;;;29.27;20.80;;;;;;;5.00;66.70;99333.13;5119855;28;20187;-71
2021/01/23 01:05:14;;;;;;;29.80;20.20;;;;;;;4.88;66.87;99333.03;5119142;28;20200;-72
2021/01/23 01:07:39;;;;;;;29.83;20.90;;;;;;;4.54;68.04;99330.09;5119152;28;20178;-72
2021/01/23 01:10:05;;;;;;;29.43;21.67;;;;;;;5.08;67.13;99325.47;5119458;28;20171;-72
2021/01/23 01:12:30;;;;;;;30.53;22.20;;;;;;;4.95;67.02;99331.38;5119041;28;20159;-71
2021/01/23 01:14:55;;;;;;;30.03;22.03;;;;;;;4.97;66.81;99329.69;5118913;28;20551;-71
2021/01/23 01:17:21;;;;;;;32.43;19.87;;;;;;;4.84;67.10;99333.84;5119366;28;20178;-73
2021/01/23 01:19:46;;;;;;;31.50;20.57;;;;;;;4.99;66.25;99331.44;5118888;28;20182;-75
2021/01/23 01:22:11;;;;;;;33.13;23.90;;;;;;;5.00;66.95;99335.72;5118864;28;20203;-73
2021/01/23 01:24:37;;;;;;;31.50;23.43;;;;;;;4.74;66.69;99338.06;5119551;28;20174;-72
2021/01/23 01:27:02;;;;;;;34.93;24.77;;;;;;;5.09;65.42;99328.91;5118916;28;20179;-71
2021/01/23 01:29:28;;;;;;;33.77;23.50;;;;;;;5.06;65.86;99335.78;5118608;28;20593;-73
2021/01/23 01:31:53;;;;;;;31.47;22.20;;;;;;;5.23;65.78;99323.00;5119709;28;20164;-73
2021/01/23 01:34:18;;;;;;;28.67;21.53;;;;;;;4.89;66.99;99317.53;5118747;28;20167;-72
2021/01/23 01:36:43;;;;;;;27.50;21.30;;;;;;;4.83;67.50;99322.66;5118793;28;20228;-72
2021/01/23 01:39:09;;;;;;;30.67;21.77;;;;;;;4.93;66.71;99313.28;5119690;28;20168;-70
2021/01/23 01:41:38;;;;;;;31.00;22.77;;;;;;;4.95;66.94;99315.88;5119256;28;20195;-71
2021/01/23 01:44:07;;;;;;;26.47;19.73;;;;;;;5.15;67.03;99310.88;5118880;28;20163;-72
2021/01/23 01:46:33;;;;;;;31.83;22.50;;;;;;;4.86;66.41;99314.94;5119030;28;20427;-73
2021/01/23 01:49:01;;;;;;;36.00;22.30;;;;;;;5.10;66.06;99320.31;5117978;28;20402;-73
2021/01/23 01:51:26;;;;;;;30.90;21.67;;;;;;;4.95;66.85;99321.03;5117722;28;20182;-73
2021/01/23 01:53:53;;;;;;;30.77;21.80;;;;;;;5.17;66.35;99322.97;5118901;28;20484;-74
2021/01/23 01:56:18;;;;;;;28.57;21.60;;;;;;;5.29;65.79;99331.66;5118597;28;20174;-72
2021/01/23 01:58:43;;;;;;;26.50;21.33;;;;;;;5.18;66.07;99337.63;5118293;28;20500;-71
2021/01/23 02:01:09;;;;;;;29.43;20.77;;;;;;;5.03;66.22;99337.47;5118704;28;20167;-71
2021/01/23 02:03:55;;;;;;;27.80;21.00;;;;;;;5.25;66.20;99335.97;5118550;28;20164;-71
2021/01/23 02:06:45;;;;;;;29.67;21.73;;;;;;;5.48;64.50;99330.09;5117918;28;20185;-73
2021/01/23 02:09:17;;;;;;;30.83;22.43;;;;;;;5.49;65.22;99324.94;5117796;28;20420;-74
2021/01/23 02:12:03;;;;;;;28.70;21.10;;;;;;;5.29;65.62;99319.63;5117583;28;20505;-72
2021/01/23 02:14:37;;;;;;;34.00;23.13;;;;;;;4.89;66.91;99339.94;5117541;28;20461;-72
2021/01/23 02:17:07;;;;;;;28.33;20.77;;;;;;;5.00;67.41;99335.72;5118572;28;20413;-72
2021/01/23 02:19:50;;;;;;;33.13;23.33;;;;;;;5.17;66.41;99335.03;5117279;28;20791;-72
2021/01/23 02:22:40;;;;;;;29.10;21.93;;;;;;;5.10;66.50;99336.69;5117406;28;20547;-71
2021/01/23 02:25:06;;;;;;;33.03;23.57;;;;;;;5.17;66.26;99332.44;5120662;28;20419;-74
2021/01/23 02:27:55;;;;;;;38.87;24.37;;;;;;;5.27;65.34;99328.22;5121407;28;20418;-73
2021/01/23 02:30:40;;;;;;;33.20;24.20;;;;;;;4.81;66.85;99334.69;5122008;28;20417;-75
2021/01/23 02:33:06;;;;;;;30.67;23.80;;;;;;;5.16;66.80;99328.97;5121472;28;20417;-72
2021/01/23 02:35:32;;;;;;;33.57;23.60;;;;;;;4.82;66.82;99336.41;5122200;28;20825;-68
2021/01/23 02:37:57;;;;;;;37.83;23.97;;;;;;;5.09;65.90;99339.25;5122077;28;20417;-68
2021/01/23 02:40:22;;;;;;;35.77;24.13;;;;;;;4.86;67.59;99334.75;5122435;28;20251;-70
2021/01/23 02:42:49;;;;;;;36.60;25.80;;;;;;;4.83;67.54;99343.31;5121977;28;20632;-73
2021/01/23 02:45:14;;;;;;;36.63;23.80;;;;;;;4.91;66.92;99339.94;5121853;28;20220;-72
2021/01/23 02:47:39;;;;;;;33.93;24.10;;;;;;;4.91;66.57;99339.94;5122286;28;20409;-72
2021/01/23 02:50:06;;;;;;;30.47;23.43;;;;;;;5.19;66.02;99335.91;5121657;28;20179;-71
2021/01/23 02:52:51;;;;;;;33.40;24.23;;;;;;;4.96;66.83;99344.28;5121806;28;20175;-72
2021/01/23 02:55:45;;;;;;;34.83;23.33;;;;;;;5.00;66.80;99342.63;5121080;28;20500;-69
2021/01/23 02:58:11;;;;;;;8.93;6.77;;;;;;;12.49;69.26;99319.50;5121724;27;20512;-69
2021/01/23 03:00:37;;;;;;;24.07;17.83;;;;;;;14.19;49.44;99311.88;5121516;28;20520;-70
2021/01/23 03:03:03;;;;;;;29.90;23.47;;;;;;;8.41;54.13;99334.94;5121255;28;20457;-71
2021/01/23 03:05:33;;;;;;;25.87;20.80;;;;;;;7.14;58.77;99339.47;5122598;28;20409;-70
2021/01/23 03:07:59;;;;;;;30.23;22.77;;;;;;;6.26;60.64;99342.66;5121036;28;20174;-71
2021/01/23 03:10:36;;;;;;;29.70;21.63;;;;;;;6.01;62.24;99344.28;5121564;28;20441;-70
2021/01/23 03:13:01;;;;;;;37.20;23.33;;;;;;;5.78;63.59;99344.97;5121433;28;20253;-70
2021/01/23 03:15:26;;;;;;;30.40;22.40;;;;;;;5.32;64.83;99339.47;5121273;28;20488;-70
2021/01/23 03:17:52;;;;;;;32.33;22.83;;;;;;;5.38;65.00;99348.09;5121931;28;20171;-70
2021/01/23 03:20:17;;;;;;;32.73;22.97;;;;;;;5.49;65.22;99339.59;5121285;28;20175;-71
2021/01/23 03:22:42;;;;;;;31.73;23.10;;;;;;;5.25;65.29;99342.84;5121354;28;20272;-70
2021/01/23 03:25:08;;;;;;;33.30;22.60;;;;;;;5.47;64.54;99342.16;5120982;28;20171;-71
2021/01/23 03:27:33;;;;;;;33.23;23.30;;;;;;;5.34;64.49;99346.34;5121251;28;20171;-70
2021/01/23 03:29:59;;;;;;;35.57;23.60;;;;;;;5.43;64.77;99342.13;5121123;28;20183;-70
2021/01/23 03:32:24;;;;;;;35.93;23.13;;;;;;;5.47;65.16;99341.31;5121529;28;20160;-69
2021/01/23 03:34:49;;;;;;;37.03;24.53;;;;;;;5.52;65.85;99344.75;5120867;28;20184;-70
2021/01/23 03:37:15;;;;;;;30.10;24.37;;;;;;;5.34;65.44;99346.34;5120033;28;20163;-71
2021/01/23 03:39:40;;;;;;;38.67;25.17;;;;;;;5.31;65.26;99346.34;5121271;28;20618;-70
2021/01/23 03:42:05;;;;;;;38.57;24.90;;;;;;;5.09;66.69;99353.03;5120765;28;20196;-70
2021/01/23 03:44:31;;;;;;;34.67;23.73;;;;;;;5.34;64.89;99351.53;5120959;28;20205;-69
2021/01/23 03:46:56;;;;;;;50.43;30.63;;;;;;;5.43;65.13;99344.72;5121174;28;20190;-70
2021/01/23 03:49:21;;;;;;;45.07;27.37;;;;;;;4.94;66.72;99347.72;5120809;28;20168;-71
2021/01/23 03:51:46;;;;;;;37.43;26.03;;;;;;;5.09;66.66;99347.00;5120528;28;20228;-71
2021/01/23 03:54:12;;;;;;;40.27;25.70;;;;;;;5.37;65.89;99341.22;5121336;28;20199;-70
2021/01/23 03:56:37;;;;;;;38.40;25.00;;;;;;;5.05;66.72;99341.81;5120662;28;20183;-71
2021/01/23 03:59:02;;;;;;;37.23;26.37;;;;;;;5.31;65.38;99342.91;5120701;28;20187;-71
2021/01/23 04:01:28;;;;;;;39.43;24.87;;;;;;;5.10;66.48;99338.41;5120613;28;20260;-71
2021/01/23 04:03:53;;;;;;;37.70;25.00;;;;;;;5.25;66.69;99341.13;5120647;28;20163;-70
2021/01/23 04:06:18;;;;;;;35.53;24.50;;;;;;;5.28;65.91;99335.97;5120530;28;20536;-70
2021/01/23 04:08:44;;;;;;;38.03;25.50;;;;;;;5.48;65.94;99338.72;5120865;28;20194;-71
2021/01/23 04:11:09;;;;;;;35.63;25.43;;;;;;;5.42;65.59;99337.81;5120250;28;20421;-70
2021/01/23 04:13:34;;;;;;;37.70;24.47;;;;;;;5.51;65.36;99335.31;5120525;28;20175;-71
2021/01/23 04:15:59;;;;;;;34.30;24.40;;;;;;;5.30;66.15;99342.00;5120692;28;20211;-70
2021/01/23 04:18:25;;;;;;;36.20;25.03;;;;;;;5.30;66.30;99342.00;5120369;28;20171;-70
2021/01/23 04:20:51;;;;;;;37.40;25.70;;;;;;;5.31;65.60;99341.16;5120464;28;20190;-71
2021/01/23 04:23:16;;;;;;;41.77;27.10;;;;;;;5.52;64.99;99326.66;5120826;28;20248;-70
2021/01/23 04:25:41;;;;;;;35.23;25.03;;;;;;;5.47;64.90;99330.97;5121504;28;20167;-70
2021/01/23 04:28:07;;;;;;;36.73;26.10;;;;;;;5.58;65.13;99329.31;5120122;28;20168;-70
2021/01/23 04:30:32;;;;;;;34.17;26.30;;;;;;;5.20;65.57;99332.47;5120323;28;20446;-70
2021/01/23 04:32:57;;;;;;;38.20;26.40;;;;;;;5.32;65.51;99326.53;5120064;28;20176;-71
2021/01/23 04:35:23;;;;;;;35.73;26.50;;;;;;;5.44;65.01;99328.34;5120045;28;20533;-70
2021/01/23 04:37:48;;;;;;;41.80;27.43;;;;;;;5.69;64.67;99326.81;5120549;28;20212;-70
2021/01/23 04:40:14;;;;;;;37.20;26.13;;;;;;;5.48;65.22;99333.56;5119657;28;20167;-70
2021/01/23 04:42:41;;;;;;;36.07;25.47;;;;;;;5.51;65.24;99332.72;5119818;28;20210;-71
2021/01/23 04:45:07;;;;;;;38.53;26.73;;;;;;;5.33;65.62;99323.97;5120255;28;20270;-70
2021/01/23 04:47:32;;;;;;;38.23;26.50;;;;;;;5.36;66.12;99331.75;5118603;28;20405;-70
2021/01/23 04:49:57;;;;;;;41.83;28.47;;;;;;;5.56;65.92;99325.84;5118797;28;20410;-69
2021/01/23 04:52:23;;;;;;;41.17;26.33;;;;;;;5.33;65.50;99331.72;5120135;27;20156;-71
2021/01/23 04:54:48;;;;;;;42.23;28.13;;;;;;;5.53;65.64;99331.00;5118850;28;20533;-70
2021/01/23 04:57:13;;;;;;;36.33;25.80;;;;;;;5.46;65.15;99331.81;5119502;28;20167;-70
2021/01/23 04:59:41;;;;;;;34.10;24.83;;;;;;;5.79;64.31;99332.88;5119712;28;20507;-70
2021/01/23 05:02:20;;;;;;;40.40;26.77;;;;;;;5.32;65.39;99331.72;5119363;28;20199;-70
2021/01/23 05:05:01;;;;;;;37.33;25.03;;;;;;;5.52;65.47;99331.84;5119274;28;20885;-70
2021/01/23 05:07:33;;;;;;;37.13;25.67;;;;;;;5.72;65.31;99325.13;5118831;28;20445;-71
2021/01/23 05:10:23;;;;;;;39.30;26.80;;;;;;;5.63;65.69;99332.81;5119199;28;20448;-70
2021/01/23 05:12:52;;;;;;;34.80;25.47;;;;;;;5.45;65.96;99333.50;5119153;28;20460;-71
2021/01/23 05:15:26;;;;;;;41.67;25.40;;;;;;;5.57;65.88;99333.63;5119021;28;20485;-70
2021/01/23 05:18:05;;;;;;;41.03;24.93;;;;;;;5.52;65.46;99329.25;5118982;28;20406;-71
2021/01/23 05:20:49;;;;;;;44.00;25.93;;;;;;;5.37;66.49;99323.13;5119000;28;20485;-70
2021/01/23 05:23:17;;;;;;;36.40;24.40;;;;;;;5.42;66.07;99327.47;5118813;28;20452;-70
2021/01/23 05:25:43;;;;;;;37.33;26.67;;;;;;;5.34;66.37;99320.50;5118910;28;20409;-70
2021/01/23 05:28:11;;;;;;;41.20;24.47;;;;;;;5.30;66.03;99312.72;5118813;28;20457;-71
2021/01/23 05:30:43;;;;;;;35.17;25.20;;;;;;;5.48;65.91;99318.06;5119036;28;20850;-71
2021/01/23 05:33:13;;;;;;;34.63;25.40;;;;;;;5.40;66.17;99319.72;5118731;28;20492;-70
2021/01/23 05:35:39;;;;;;;38.53;26.07;;;;;;;5.46;66.27;99324.91;5118849;28;20416;-70
2021/01/23 05:38:43;;;;;;;40.30;27.00;;;;;;;5.29;66.84;99335.13;5118393;28;20720;-70
2021/01/23 05:41:09;;;;;;;37.97;25.70;;;;;;;5.39;65.95;99333.47;5097263;28;20176;-71
2021/01/23 05:43:46;;;;;;;38.60;25.30;;;;;;;5.21;67.38;99329.03;5118837;28;20429;-70
2021/01/23 05:46:19;;;;;;;37.60;24.97;;;;;;;5.31;66.48;99320.50;5118848;28;20440;-70
2021/01/23 05:48:48;;;;;;;34.47;25.50;;;;;;;5.32;67.13;99331.72;5117938;28;20413;-70
2021/01/23 05:51:15;;;;;;;39.77;26.10;;;;;;;5.63;66.41;99327.63;5118515;28;20409;-70
2021/01/23 05:53:41;;;;;;;43.10;25.90;;;;;;;5.51;66.39;99322.38;5118605;28;20402;-70
2021/01/23 05:56:06;;;;;;;39.50;25.00;;;;;;;5.40;66.18;99328.31;5119106;28;20471;-71
2021/01/23 05:58:34;;;;;;;43.70;27.37;;;;;;;5.66;65.99;99317.31;5118032;28;20168;-70
2021/01/23 06:01:02;;;;;;;39.60;27.03;;;;;;;5.34;66.05;99323.09;5118492;28;20164;-70
2021/01/23 06:03:38;;;;;;;38.50;25.20;;;;;;;5.39;65.96;99324.00;5119179;28;20417;-70
2021/01/23 06:06:04;;;;;;;40.70;26.27;;;;;;;5.58;66.73;99324.16;5117986;28;20465;-70
2021/01/23 06:08:48;;;;;;;43.93;25.87;;;;;;;5.55;65.91;99321.53;5118421;28;20410;-70
2021/01/23 06:11:19;;;;;;;34.30;24.50;;;;;;;5.53;65.35;99315.47;5118294;28;20543;-71
2021/01/23 06:13:49;;;;;;;39.03;25.10;;;;;;;5.63;65.48;99321.56;5118331;28;20412;-70
2021/01/23 06:16:32;;;;;;;37.93;25.13;;;;;;;5.56;64.76;99325.84;5118525;28;20748;-70
2021/01/23 06:19:17;;;;;;;37.60;23.97;;;;;;;5.30;65.95;99331.69;5118555;28;20641;-70
2021/01/23 06:21:42;;;;;;;31.53;23.57;;;;;;;5.45;65.53;99328.34;5117924;28;20555;-71
2021/01/23 06:24:12;;;;;;;35.30;25.73;;;;;;;5.14;66.73;99334.97;5118391;28;20496;-70
2021/01/23 06:26:52;;;;;;;33.93;26.00;;;;;;;5.18;67.02;99329.88;5118388;28;20159;-71
2021/01/23 06:29:37;;;;;;;39.97;25.00;;;;;;;5.01;66.84;99336.59;5118442;28;20416;-71
2021/01/23 06:32:26;;;;;;;37.43;25.30;;;;;;;5.23;65.90;99332.47;5118408;28;20410;-70
2021/01/23 06:34:58;;;;;;;36.63;25.13;;;;;;;4.95;66.48;99337.41;5118381;28;20661;-70
2021/01/23 06:37:33;;;;;;;36.47;26.17;;;;;;;4.36;69.50;99338.50;5118363;28;20413;-70
2021/01/23 06:40:02;;;;;;;33.70;23.60;;;;;;;4.65;68.26;99333.63;5118114;28;20444;-70
2021/01/23 06:42:27;;;;;;;37.50;25.20;;;;;;;4.50;67.96;99342.09;5118063;28;20502;-71
2021/01/23 06:44:53;;;;;;;32.33;25.60;;;;;;;4.63;67.61;99339.66;5117509;28;20413;-70
2021/01/23 06:47:18;;;;;;;37.17;25.37;;;;;;;4.36;68.85;99351.41;5118000;28;20160;-71
2021/01/23 06:49:44;;;;;;;37.87;25.50;;;;;;;4.36;69.91;99354.81;5118108;28;20199;-71
2021/01/23 06:52:10;;;;;;;39.20;26.67;;;;;;;4.22;70.34;99356.34;5117521;28;20225;-70
2021/01/23 06:54:36;;;;;;;42.33;26.70;;;;;;;4.19;69.44;99346.91;5118647;28;20213;-71
2021/01/23 06:57:02;;;;;;;39.93;24.50;;;;;;;4.25;69.39;99358.09;5118052;28;20500;-71
2021/01/23 06:59:35;;;;;;;41.93;25.23;;;;;;;4.23;69.76;99352.94;5117957;28;20180;-71
2021/01/23 07:02:07;;;;;;;35.47;24.83;;;;;;;4.31;69.42;99359.06;5118444;28;20465;-70
2021/01/23 07:04:43;;;;;;;37.13;25.33;;;;;;;4.21;69.76;99355.50;5119273;28;20709;-71
2021/01/23 07:07:08;;;;;;;40.03;26.53;;;;;;;4.25;70.35;99359.00;5117543;28;20458;-71
2021/01/23 07:09:56;;;;;;;38.60;26.10;;;;;;;4.32;69.33;99363.38;5118091;28;20688;-70
2021/01/23 07:12:47;;;;;;;62.07;27.40;;;;;;;3.98;69.46;99359.50;5122083;27;20529;-71
2021/01/23 07:15:35;;;;;;;39.80;26.10;;;;;;;4.00;70.49;99350.91;5121663;28;20481;-69
2021/01/23 07:18:13;;;;;;;36.47;24.63;;;;;;;4.10;69.16;99351.03;5113019;28;20425;-70
2021/01/23 07:20:39;;;;;;;37.60;27.67;;;;;;;4.45;68.74;99351.50;5121571;28;20413;-70
2021/01/23 07:23:05;;;;;;;39.57;26.80;;;;;;;4.36;69.21;99352.25;5121895;28;20457;-70
2021/01/23 07:25:31;;;;;;;37.80;26.57;;;;;;;3.98;70.38;99350.03;5121458;28;20168;-70
2021/01/23 07:27:56;;;;;;;43.80;27.20;;;;;;;4.30;68.47;99353.88;5121896;28;20178;-70
2021/01/23 07:30:22;;;;;;;46.20;26.47;;;;;;;3.94;70.09;99353.41;5120862;28;20405;-70
2021/01/23 07:32:47;;;;;;;40.33;25.97;;;;;;;4.07;69.20;99351.00;5121210;28;20183;-70
2021/01/23 07:35:14;;;;;;;37.80;26.83;;;;;;;4.47;68.58;99348.94;5121666;28;20167;-71
2021/01/23 07:37:53;;;;;;;37.90;25.20;;;;;;;4.25;70.33;99346.09;5121232;28;20249;-70
2021/01/23 07:40:29;;;;;;;36.87;24.77;;;;;;;3.98;70.71;99350.03;5120598;28;20907;-70
2021/01/23 07:42:58;;;;;;;39.93;25.00;;;;;;;4.17;69.25;99342.56;5121812;28;20451;-70
2021/01/23 07:45:24;;;;;;;44.80;29.90;;;;;;;4.28;69.49;99342.69;5122294;28;20454;-70
2021/01/23 07:48:06;;;;;;;44.60;26.73;;;;;;;4.42;69.46;99340.28;5121035;28;20462;-71
2021/01/23 07:50:36;;;;;;;43.87;28.53;;;;;;;4.34;68.38;99338.47;5120160;28;20176;-71
2021/01/23 07:53:13;;;;;;;38.07;24.73;;;;;;;4.37;68.89;99329.88;5120823;28;20555;-70
2021/01/23 07:55:38;;;;;;;40.77;25.77;;;;;;;4.19;69.66;99323.69;5120959;28;20405;-71
2021/01/23 07:58:08;;;;;;;41.07;26.70;;;;;;;4.31;68.64;99319.50;5120571;28;20427;-70
2021/01/23 08:00:34;;;;;;;41.27;26.57;;;;;;;3.98;70.20;99323.41;5120398;28;20448;-69
2021/01/23 08:02:59;;;;;;;38.77;25.40;;;;;;;4.21;69.17;99327.13;5121108;28;20465;-71
2021/01/23 08:05:50;;;;;;;44.70;27.90;;;;;;;4.07;69.82;99320.91;5120492;28;20206;-71
2021/01/23 08:08:31;;;;;;;35.80;24.00;;;;;;;3.94;70.01;99314.75;5120516;28;20160;-70
2021/01/23 08:10:58;;;;;;;40.30;26.30;;;;;;;4.03;70.74;99317.44;5120366;28;20675;-71
2021/01/23 08:13:29;;;;;;;39.53;26.63;;;;;;;3.88;70.42;99312.06;5119611;28;20409;-69
2021/01/23 08:16:09;;;;;;;40.10;26.30;;;;;;;4.22;68.80;99305.66;5120272;28;20468;-70
2021/01/23 08:18:35;;;;;;;42.63;26.03;;;;;;;3.95;70.43;99298.44;5120475;28;20703;-70
2021/01/23 08:21:00;;;;;;;44.90;26.00;;;;;;;4.21;69.19;99293.59;5120026;28;20508;-69
2021/01/23 08:23:32;;;;;;;35.67;26.03;;;;;;;4.75;67.88;99302.75;5119455;28;20213;-70
2021/01/23 08:25:58;;;;;;;36.60;25.47;;;;;;;4.54;67.87;99289.66;5120660;28;20163;-71
2021/01/23 08:28:33;;;;;;;39.13;26.00;;;;;;;4.70;66.97;99295.00;5120166;28;20697;-70
2021/01/23 08:31:18;;;;;;;40.40;27.77;;;;;;;4.78;66.75;99292.50;5120003;28;20171;-70
2021/01/23 08:33:48;;;;;;;39.83;27.60;;;;;;;4.89;66.57;99290.88;5120220;28;20647;-69
2021/01/23 08:36:14;;;;;;;39.33;26.60;;;;;;;4.67;67.21;99300.13;5120136;28;20424;-69
2021/01/23 08:38:40;;;;;;;36.20;25.47;;;;;;;4.67;67.86;99293.25;5119914;28;20416;-70
2021/01/23 08:41:05;;;;;;;41.67;25.60;;;;;;;4.53;67.67;99287.94;5119617;28;20409;-70
2021/01/23 08:43:30;;;;;;;34.83;24.70;;;;;;;4.46;68.15;99288.72;5120450;28;20206;-71
2021/01/23 08:45:56;;;;;;;42.23;28.40;;;;;;;5.14;66.26;99291.97;5119792;27;20213;-69
2021/01/23 08:48:21;;;;;;;44.73;25.83;;;;;;;5.02;65.35;99297.88;5119715;28;20212;-70
2021/01/23 08:50:47;;;;;;;37.47;26.50;;;;;;;4.32;67.40;99295.44;5119893;28;20172;-70
2021/01/23 08:53:12;;;;;;;36.00;25.33;;;;;;;4.69;68.09;99295.84;5119554;27;20179;-70
2021/01/23 08:55:38;;;;;;;38.67;25.07;;;;;;;4.34;69.01;99302.34;5119313;28;20494;-70
2021/01/23 08:58:03;;;;;;;40.10;26.27;;;;;;;4.31;67.73;99297.13;5119792;28;20618;-71
2021/01/23 09:00:28;;;;;;;35.10;24.97;;;;;;;3.86;68.60;99304.31;5119188;28;20199;-70
2021/01/23 09:02:54;;;;;;;35.87;25.27;;;;;;;4.24;68.41;99305.66;5119366;27;20206;-71
2021/01/23 09:05:19;;;;;;;42.30;26.43;;;;;;;3.97;69.49;99306.19;5119856;28;20525;-70
2021/01/23 09:07:44;;;;;;;37.17;25.67;;;;;;;4.74;66.98;99307.06;5119263;28;20159;-70
2021/01/23 09:10:11;;;;;;;38.07;25.37;;;;;;;4.82;66.89;99326.09;5119134;28;20244;-70
2021/01/23 09:12:36;;;;;;;35.80;26.07;;;;;;;5.27;65.63;99333.38;5101875;28;20168;-70
2021/01/23 09:15:03;;;;;;;36.70;25.10;;;;;;;4.83;66.78;99335.56;5118959;28;20544;-71
2021/01/23 09:17:29;;;;;;;37.43;28.00;;;;;;;5.54;64.57;99331.00;5118431;28;20190;-71
2021/01/23 09:19:54;;;;;;;40.67;25.43;;;;;;;5.11;67.03;99328.06;5119278;28;20688;-70
2021/01/23 09:22:19;;;;;;;32.97;25.40;;;;;;;5.65;64.93;99327.63;5118914;28;20210;-71
2021/01/23 09:24:44;;;;;;;35.97;26.00;;;;;;;5.55;64.86;99319.81;5119115;28;20250;-71
2021/01/23 09:27:10;;;;;;;34.77;24.13;;;;;;;6.27;63.02;99308.16;5119250;28;20496;-71
2021/01/23 09:29:35;;;;;;;34.87;25.53;;;;;;;6.38;61.77;99313.38;5118989;28;20242;-70
2021/01/23 09:32:05;;;;;;;33.50;25.37;;;;;;;6.36;62.50;99315.97;5118832;28;20214;-70
2021/01/23 09:34:36;;;;;;;37.10;26.27;;;;;;;6.92;60.28;99318.69;5118512;28;20170;-71
2021/01/23 09:37:04;;;;;;;37.17;25.43;;;;;;;6.46;61.29;99321.19;5118654;28;20463;-71
2021/01/23 09:39:30;;;;;;;31.93;23.50;;;;;;;6.62;60.75;99302.25;5118030;28;20405;-70
2021/01/23 09:41:57;;;;;;;35.43;24.27;;;;;;;6.31;61.39;99311.66;5119621;28;20441;-70
2021/01/23 09:44:22;;;;;;;35.60;25.50;;;;;;;6.95;60.02;99316.09;5119119;28;20711;-71
2021/01/23 09:46:47;;;;;;;31.27;24.30;;;;;;;6.96;60.10;99312.66;5119044;28;20424;-71
2021/01/23 09:49:13;;;;;;;33.60;23.03;;;;;;;7.47;58.19;99322.16;5119208;28;20179;-70
2021/01/23 09:51:38;;;;;;;35.70;23.30;;;;;;;6.90;58.97;99323.00;5118290;28;20418;-70
2021/01/23 09:54:03;;;;;;;27.83;21.93;;;;;;;6.45;59.80;99327.22;5118588;28;20199;-70
2021/01/23 09:56:29;;;;;;;32.90;23.30;;;;;;;7.32;58.39;99320.44;5118788;28;20258;-70
2021/01/23 09:58:54;;;;;;;30.80;21.90;;;;;;;7.66;56.57;99316.13;5118458;28;20191;-70
2021/01/23 10:01:20;;;;;;;32.20;23.47;;;;;;;7.82;56.47;99334.22;5118356;28;20213;-71
2021/01/23 10:03:45;;;;;;;31.87;24.10;;;;;;;7.47;57.39;99324.75;5119072;28;20212;-71
2021/01/23 10:06:11;;;;;;;34.47;23.70;;;;;;;8.05;56.28;99323.78;5118377;28;20413;-70
2021/01/23 10:08:36;;;;;;;35.33;23.90;;;;;;;8.15;55.95;99320.31;5118433;28;20586;-71
2021/01/23 10:11:01;;;;;;;33.47;23.73;;;;;;;7.79;55.93;99318.69;5118585;28;20160;-70
2021/01/23 10:13:27;;;;;;;29.40;22.57;;;;;;;7.72;56.06;99310.91;5117227;28;20179;-78
2021/01/23 10:15:52;;;;;;;29.90;22.87;;;;;;;7.09;58.26;99316.16;5118149;28;20230;-76
2021/01/23 10:18:17;;;;;;;33.83;25.27;;;;;;;7.76;56.42;99317.81;5118729;28;20213;-76
2021/01/23 10:20:42;;;;;;;30.57;23.97;;;;;;;7.82;56.35;99311.75;5117445;28;20182;-75
2021/01/23 10:23:08;;;;;;;34.00;24.20;;;;;;;8.22;55.55;99310.78;5118236;28;20218;-76
2021/01/23 10:25:33;;;;;;;27.97;22.70;;;;;;;8.25;54.96;99308.16;5118710;28;20208;-76
2021/01/23 10:27:59;;;;;;;31.20;23.37;;;;;;;8.03;55.94;99304.78;5118403;28;20175;-75
2021/01/23 10:30:25;;;;;;;31.10;22.90;;;;;;;8.11;55.26;99305.63;5118200;28;20190;-75
2021/01/23 10:32:50;;;;;;;26.47;21.00;;;;;;;8.14;55.06;99302.16;5118617;28;20171;-75
2021/01/23 10:35:16;;;;;;;30.93;23.67;;;;;;;8.20;54.93;99300.41;5118227;28;20410;-74
2021/01/23 10:37:42;;;;;;;26.97;22.67;;;;;;;8.13;55.13;99310.81;5118227;28;20163;-74
2021/01/23 10:40:08;;;;;;;29.43;22.97;;;;;;;7.26;57.94;99310.94;5118658;28;20424;-75
2021/01/23 10:42:33;;;;;;;29.17;23.40;;;;;;;7.75;56.67;99305.72;5117246;28;20591;-74
2021/01/23 10:44:59;;;;;;;31.37;23.90;;;;;;;7.62;57.61;99303.13;5118773;28;20413;-74
2021/01/23 10:47:24;;;;;;;32.77;23.10;;;;;;;7.72;56.76;99299.66;5122359;28;20178;-75
2021/01/23 10:49:50;;;;;;;30.73;23.03;;;;;;;6.96;58.59;99298.84;5121887;28;20164;-76
2021/01/23 10:52:15;;;;;;;29.50;21.57;;;;;;;7.71;56.96;99283.25;5122024;28;20187;-75
2021/01/23 10:54:40;;;;;;;28.07;23.33;;;;;;;7.80;57.15;99281.50;5122432;28;20541;-73
2021/01/23 10:57:06;;;;;;;28.73;21.40;;;;;;;7.85;56.26;99267.63;5122643;28;20168;-74
2021/01/23 10:59:33;;;;;;;27.83;21.47;;;;;;;7.73;55.92;99267.69;5123658;27;20237;-74
2021/01/23 11:01:58;;;;;;;27.90;21.37;;;;;;;7.92;55.65;99265.88;5122549;28;20180;-75
2021/01/23 11:04:24;;;;;;;27.20;22.30;;;;;;;8.68;54.12;99270.75;5121787;28;20420;-75
2021/01/23 11:06:49;;;;;;;29.70;22.57;;;;;;;8.46;54.21;99267.41;5121891;28;20179;-75
2021/01/23 11:09:14;;;;;;;27.70;20.73;;;;;;;8.14;55.57;99263.22;5121960;28;20251;-75
2021/01/23 11:11:40;;;;;;;29.97;21.40;;;;;;;8.64;53.84;99256.06;5121612;28;20160;-74
2021/01/23 11:14:05;;;;;;;26.43;20.60;;;;;;;8.72;52.49;99257.72;5121645;28;20231;-75
2021/01/23 11:16:30;;;;;;;28.83;21.17;;;;;;;8.92;52.49;99248.94;5122099;28;20167;-74
2021/01/23 11:18:56;;;;;;;27.30;21.40;;;;;;;8.82;52.73;99239.47;5121670;27;20433;-74
2021/01/23 11:21:21;;;;;;;26.33;21.43;;;;;;;8.95;52.16;99238.50;5121108;28;20548;-75
2021/01/23 11:23:47;;;;;;;26.37;21.00;;;;;;;8.62;53.01;99245.69;5121852;28;20552;-74
2021/01/23 11:26:12;;;;;;;27.30;20.37;;;;;;;8.81;52.95;99243.81;5121278;28;20171;-74
2021/01/23 11:28:39;;;;;;;28.23;21.40;;;;;;;8.69;53.27;99238.72;5121277;28;20174;-75
2021/01/23 11:31:05;;;;;;;29.10;20.90;;;;;;;8.83;52.39;99230.81;5121545;28;20163;-75